| time (UTC) | temp F | wind direction | speed knots | gust knots | rain 1hr in | rain 24hr in | rain mn in | humidity % | barometer mb |
| 20260507130517 | 74 | 261 | 1.7 | 7.0 | 0.00 | 0.08 | 0.00 | 48 | 1013.4 |
| 20260507130018 | 75 | 250 | 2.6 | 7.0 | 0.00 | 0.08 | 0.00 | 45 | 1013.3 |
| 20260507125516 | 74 | 241 | 2.6 | 7.0 | 0.00 | 0.08 | 0.00 | 48 | 1013.2 |
| 20260507125016 | 75 | 250 | 1.7 | 7.0 | 0.00 | 0.08 | 0.00 | 49 | 1013.2 |
| 20260507124519 | 75 | 250 | 2.6 | 7.0 | 0.00 | 0.08 | 0.00 | 48 | 1013.2 |
| 20260507124016 | 74 | 239 | 2.6 | 7.0 | 0.00 | 0.08 | 0.00 | 53 | 1013.2 |
| 20260507123516 | 74 | 244 | 2.6 | 7.0 | 0.00 | 0.08 | 0.00 | 52 | 1013.3 |
| 20260507123019 | 74 | 252 | 2.6 | 7.0 | 0.00 | 0.08 | 0.00 | 52 | 1013.4 |
| 20260507122516 | 74 | 254 | 2.6 | 7.0 | 0.00 | 0.08 | 0.00 | 52 | 1013.3 |
| 20260507121517 | 74 | 118 | 1.7 | 7.8 | 0.00 | 0.08 | 0.00 | 54 | 1013.3 |
| 20260507120516 | 73 | 81 | 1.7 | 5.2 | 0.00 | 0.08 | 0.00 | 55 | 1013.3 |
| 20260507120019 | 75 | 230 | 1.7 | 5.2 | 0.00 | 0.08 | 0.00 | 52 | 1013.4 |
| 20260507115516 | 74 | 237 | 1.7 | 5.2 | 0.00 | 0.08 | 0.00 | 52 | 1013.5 |
| 20260507115017 | 73 | 234 | 1.7 | 7.0 | 0.00 | 0.08 | 0.00 | 55 | 1013.4 |
| 20260507114019 | 72 | 292 | 0.9 | 2.6 | 0.00 | 0.08 | 0.00 | 54 | 1013.4 |
| 20260507112520 | 72 | 250 | 0.0 | 2.6 | 0.00 | 0.08 | 0.00 | 57 | 1013.6 |
| 20260507111519 | 74 | 252 | 0.9 | 4.3 | 0.00 | 0.09 | 0.00 | 55 | 1013.6 |
| 20260507111017 | 73 | 261 | 1.7 | 4.3 | 0.00 | 0.09 | 0.00 | 54 | 1013.6 |
| 20260507110517 | 73 | 261 | 1.7 | 7.0 | 0.00 | 0.09 | 0.00 | 52 | 1013.7 |
| 20260507110019 | 73 | 241 | 1.7 | 7.0 | 0.00 | 0.09 | 0.00 | 55 | 1013.7 |
| 20260507105516 | 73 | 94 | 1.7 | 7.8 | 0.00 | 0.09 | 0.00 | 58 | 1013.9 |
| 20260507105016 | 72 | 76 | 0.9 | 7.8 | 0.00 | 0.09 | 0.00 | 61 | 1013.8 |
| 20260507104518 | 73 | 59 | 0.9 | 5.2 | 0.00 | 0.09 | 0.00 | 56 | 1013.9 |
| 20260507104016 | 72 | 256 | 1.7 | 5.2 | 0.00 | 0.09 | 0.00 | 62 | 1014.1 |
| 20260507103517 | 72 | 247 | 1.7 | 5.2 | 0.00 | 0.10 | 0.00 | 61 | 1014.1 |
| 20260507103017 | 71 | 222 | 0.9 | 2.6 | 0.00 | 0.10 | 0.00 | 64 | 1014.3 |
| 20260507102516 | 69 | 242 | 0.9 | 4.3 | 0.00 | 0.10 | 0.00 | 67 | 1014.2 |
| 20260507102016 | 69 | 263 | 1.7 | 4.3 | 0.00 | 0.10 | 0.00 | 66 | 1014.2 |
| 20260507101517 | 72 | 260 | 0.9 | 7.0 | 0.00 | 0.11 | 0.00 | 63 | 1014.3 |
| 20260507101016 | 73 | 241 | 0.9 | 7.0 | 0.00 | 0.13 | 0.00 | 60 | 1014.3 |
| 20260507100516 | 72 | 246 | 0.9 | 5.2 | 0.00 | 0.13 | 0.00 | 64 | 1014.3 |
| 20260507100017 | 72 | 306 | 0.9 | 5.2 | 0.00 | 0.13 | 0.00 | 64 | 1014.2 |
| 20260507095516 | 71 | 340 | 0.9 | 4.3 | 0.00 | 0.13 | 0.00 | 64 | 1014.2 |
| 20260507095017 | 71 | 217 | 1.7 | 5.2 | 0.00 | 0.13 | 0.00 | 63 | 1014.5 |
| 20260507094516 | 70 | 214 | 0.9 | 5.2 | 0.00 | 0.13 | 0.00 | 66 | 1014.1 |
| 20260507094016 | 69 | 203 | 0.9 | 4.3 | 0.00 | 0.13 | 0.00 | 71 | 1014.0 |
| 20260507092516 | 68 | 250 | 1.7 | 4.3 | 0.00 | 0.14 | 0.00 | 70 | 1013.9 |
| 20260507091516 | 67 | 246 | 0.9 | 5.2 | 0.00 | 0.14 | 0.00 | 72 | 1013.9 |
| 20260507091016 | 68 | 235 | 0.9 | 5.2 | 0.00 | 0.14 | 0.00 | 71 | 1014.1 |
| 20260507090516 | 69 | 236 | 1.7 | 5.2 | 0.00 | 0.14 | 0.00 | 69 | 1014.2 |
| 20260507085515 | 68 | 260 | 1.7 | 5.2 | 0.00 | 0.14 | 0.00 | 72 | 1014.1 |
| 20260507085020 | 68 | 229 | 0.9 | 4.3 | 0.00 | 0.14 | 0.00 | 70 | 1013.9 |
| 20260507084517 | 66 | 122 | 0.9 | 4.3 | 0.00 | 0.14 | 0.00 | 75 | 1013.9 |
| 20260507083516 | 67 | 85 | 0.9 | 2.6 | 0.00 | 0.14 | 0.00 | 73 | 1014.1 |
| 20260507083019 | 68 | 90 | 0.9 | 4.3 | 0.00 | 0.14 | 0.00 | 71 | 1014.1 |
| 20260507082516 | 67 | 73 | 0.9 | 4.3 | 0.00 | 0.14 | 0.00 | 72 | 1013.8 |
| 20260507082016 | 66 | 79 | 0.9 | 4.3 | 0.00 | 0.14 | 0.00 | 74 | 1014.1 |
| 20260507081516 | 66 | 71 | 0.9 | 4.3 | 0.00 | 0.14 | 0.00 | 72 | 1014.0 |
| 20260507081019 | 67 | 47 | 0.9 | 5.2 | 0.00 | 0.14 | 0.00 | 73 | 1013.9 |
| 20260507080516 | 65 | 21 | 0.9 | 5.2 | 0.00 | 0.14 | 0.00 | 75 | 1014.0 |
| 20260507080017 | 64 | 231 | 0.0 | 2.6 | 0.00 | 0.14 | 0.00 | 82 | 1014.0 |
| 20260507075518 | 65 | 148 | 0.0 | 2.6 | 0.00 | 0.14 | 0.00 | 79 | 1014.0 |
| 20260507075016 | 65 | 78 | 0.9 | 4.3 | 0.00 | 0.16 | 0.00 | 77 | 1013.9 |
| 20260507074516 | 65 | 75 | 0.9 | 4.3 | 0.00 | 0.16 | 0.00 | 76 | 1013.9 |
| 20260507074017 | 64 | 209 | 0.0 | 2.6 | 0.00 | 0.16 | 0.00 | 84 | 1013.7 |
| 20260507073516 | 64 | 131 | 0.9 | 4.3 | 0.00 | 0.16 | 0.00 | 83 | 1013.7 |
| 20260507073016 | 64 | 79 | 0.9 | 4.3 | 0.00 | 0.16 | 0.00 | 81 | 1013.9 |
| 20260507072517 | 65 | 82 | 0.0 | 4.3 | 0.00 | 0.16 | 0.00 | 80 | 1013.9 |
| 20260507072015 | 66 | 0 | 0.0 | 0.0 | 0.00 | 0.17 | 0.00 | 82 | 1013.6 |
| 20260507071517 | 64 | 0 | 0.0 | 0.0 | 0.00 | 0.17 | 0.00 | 85 | 1013.8 |
| 20260507071017 | 64 | 52 | 0.0 | 2.6 | 0.00 | 0.17 | 0.00 | 83 | 1013.8 |
| 20260507070516 | 63 | 77 | 0.9 | 2.6 | 0.00 | 0.17 | 0.00 | 84 | 1013.6 |
| 20260507070016 | 63 | 84 | 0.9 | 2.6 | 0.00 | 0.17 | 0.00 | 84 | 1013.7 |
| 20260507063016 | 61 | 54 | 0.0 | 2.6 | 0.00 | 0.17 | 0.00 | 99 | 1013.5 |
| 20260507062016 | 60 | 22 | 0.0 | 2.6 | 0.00 | 0.21 | 0.00 | 99 | 1013.6 |
| 20260507061516 | 60 | 0 | 0.0 | 0.0 | 0.00 | 0.22 | 0.00 | 99 | 1013.4 |
| 20260507061018 | 60 | 68 | 0.0 | 2.6 | 0.00 | 0.24 | 0.00 | 99 | 1013.4 |
| 20260507060516 | 58 | 47 | 0.0 | 2.6 | 0.00 | 0.28 | 0.00 | 99 | 1013.3 |
| 20260507060016 | 58 | 58 | 0.0 | 2.6 | 0.00 | 0.29 | 0.00 | 98 | 1013.2 |
| 20260507055519 | 57 | 68 | 0.0 | 2.6 | 0.00 | 0.31 | 0.00 | 98 | 1013.4 |
| 20260507055016 | 57 | 68 | 0.0 | 2.6 | 0.00 | 0.34 | 0.00 | 98 | 1013.3 |
| 20260507054516 | 57 | 68 | 0.0 | 2.6 | 0.00 | 0.40 | 0.00 | 98 | 1013.2 |
| 20260507054016 | 57 | 63 | 0.0 | 2.6 | 0.00 | 0.42 | 0.00 | 98 | 1013.1 |
| 20260507053516 | 56 | 75 | 0.0 | 2.6 | 0.00 | 0.42 | 0.00 | 98 | 1013.0 |
| 20260507053016 | 56 | 86 | 0.0 | 2.6 | 0.00 | 0.42 | 0.00 | 98 | 1012.9 |
| 20260507052515 | 56 | 73 | 0.0 | 4.3 | 0.00 | 0.42 | 0.00 | 98 | 1012.9 |
| 20260507052016 | 56 | 73 | 0.0 | 4.3 | 0.00 | 0.42 | 0.00 | 98 | 1013.1 |
| 20260507051516 | 56 | 74 | 0.0 | 2.6 | 0.00 | 0.42 | 0.00 | 98 | 1013.0 |
| 20260507051016 | 56 | 72 | 0.0 | 2.6 | 0.00 | 0.42 | 0.00 | 98 | 1012.7 |
| 20260507050516 | 56 | 68 | 0.0 | 1.7 | 0.00 | 0.42 | 0.00 | 98 | 1012.7 |
| 20260507050018 | 56 | 0 | 0.0 | 0.0 | 0.00 | 0.42 | 0.00 | 98 | 1012.7 |
| 20260507045515 | 56 | 0 | 0.0 | 0.0 | 0.00 | 0.42 | 0.00 | 98 | 1012.7 |
| 20260507045015 | 56 | 0 | 0.0 | 0.0 | 0.00 | 0.42 | 0.00 | 98 | 1012.4 |
| 20260507044517 | 56 | 0 | 0.0 | 0.0 | 0.00 | 0.42 | 0.00 | 98 | 1012.5 |
| 20260507044016 | 55 | 0 | 0.0 | 0.0 | 0.00 | 0.42 | 0.00 | 98 | 1012.2 |
| 20260507043516 | 55 | 0 | 0.0 | 0.0 | 0.00 | 0.42 | 0.00 | 98 | 1012.3 |
| 20260507043016 | 55 | 0 | 0.0 | 0.0 | 0.00 | 0.42 | 0.00 | 98 | 1012.3 |
| 20260507042515 | 55 | 0 | 0.0 | 0.0 | 0.00 | 0.42 | 0.00 | 98 | 1012.2 |
| 20260507042015 | 55 | 0 | 0.0 | 0.0 | 0.00 | 0.42 | 0.00 | 98 | 1012.2 |
| 20260507041016 | 55 | 0 | 0.0 | 0.0 | 0.00 | 0.42 | 0.00 | 98 | 1012.0 |
| 20260507035519 | 55 | 0 | 0.0 | 0.0 | 0.00 | 0.42 | 0.00 | 98 | 1012.2 |
| 20260507035016 | 55 | 0 | 0.0 | 0.0 | 0.00 | 0.42 | 0.00 | 98 | 1012.1 |
| 20260507034515 | 55 | 0 | 0.0 | 0.0 | 0.00 | 0.42 | 0.00 | 98 | 1011.9 |
| 20260507034017 | 55 | 0 | 0.0 | 0.0 | 0.00 | 0.42 | 0.00 | 98 | 1012.0 |
| 20260507033516 | 55 | 0 | 0.0 | 0.0 | 0.00 | 0.42 | 0.00 | 98 | 1012.1 |
| 20260507033016 | 55 | 0 | 0.0 | 0.0 | 0.00 | 0.42 | 0.00 | 98 | 1012.0 |
| 20260507032515 | 55 | 0 | 0.0 | 0.0 | 0.00 | 0.42 | 0.00 | 98 | 1012.2 |
| 20260507032015 | 55 | 0 | 0.0 | 0.0 | 0.00 | 0.42 | 0.00 | 98 | 1011.9 |
| 20260507031018 | 55 | 0 | 0.0 | 0.0 | 0.00 | 0.42 | 0.00 | 98 | 1012.0 |
| 20260507030519 | 56 | 0 | 0.0 | 0.0 | 0.00 | 0.42 | 0.00 | 98 | 1012.2 |
| 20260507030016 | 56 | 0 | 0.0 | 0.0 | 0.00 | 0.42 | 0.00 | 98 | 1012.0 |
| 20260507025016 | 57 | 0 | 0.0 | 0.0 | 0.00 | 0.42 | 0.00 | 98 | 1012.0 |
| 20260507024518 | 57 | 0 | 0.0 | 0.0 | 0.00 | 0.42 | 0.00 | 97 | 1012.0 |
| 20260507024015 | 57 | 0 | 0.0 | 0.0 | 0.00 | 0.42 | 0.00 | 97 | 1012.2 |
| 20260507023516 | 57 | 0 | 0.0 | 0.0 | 0.00 | 0.42 | 0.00 | 97 | 1011.9 |
| 20260507023016 | 57 | 0 | 0.0 | 0.0 | 0.00 | 0.42 | 0.00 | 97 | 1012.1 |
| 20260507022517 | 57 | 0 | 0.0 | 0.0 | 0.00 | 0.42 | 0.00 | 97 | 1012.0 |
| 20260507022015 | 57 | 0 | 0.0 | 0.0 | 0.00 | 0.42 | 0.00 | 97 | 1011.9 |
| 20260507021515 | 57 | 0 | 0.0 | 0.0 | 0.00 | 0.42 | 0.00 | 97 | 1012.0 |
| 20260507021016 | 57 | 0 | 0.0 | 0.0 | 0.00 | 0.42 | 0.00 | 97 | 1011.9 |
| 20260507020015 | 57 | 0 | 0.0 | 0.0 | 0.00 | 0.42 | 0.00 | 97 | 1011.8 |
| 20260507015516 | 58 | 0 | 0.0 | 0.0 | 0.00 | 0.42 | 0.00 | 97 | 1011.7 |
| 20260507015017 | 58 | 0 | 0.0 | 0.0 | 0.00 | 0.42 | 0.00 | 97 | 1012.0 |
| 20260507014515 | 57 | 0 | 0.0 | 0.0 | 0.00 | 0.42 | 0.00 | 97 | 1012.0 |
| 20260507014015 | 57 | 0 | 0.0 | 0.0 | 0.00 | 0.42 | 0.00 | 97 | 1011.9 |
| 20260507013516 | 57 | 0 | 0.0 | 0.0 | 0.00 | 0.42 | 0.00 | 97 | 1012.1 |
| 20260507013016 | 58 | 0 | 0.0 | 0.0 | 0.00 | 0.42 | 0.00 | 97 | 1012.0 |
| 20260507012515 | 58 | 0 | 0.0 | 0.0 | 0.00 | 0.42 | 0.00 | 97 | 1011.9 |
| 20260507012015 | 58 | 0 | 0.0 | 0.0 | 0.00 | 0.42 | 0.00 | 97 | 1012.0 |
| 20260507011517 | 58 | 0 | 0.0 | 0.0 | 0.00 | 0.42 | 0.00 | 97 | 1012.2 |
| 20260507010515 | 58 | 0 | 0.0 | 0.0 | 0.00 | 0.42 | 0.00 | 97 | 1011.9 |
| 20260507005518 | 58 | 0 | 0.0 | 0.0 | 0.00 | 0.42 | 0.00 | 97 | 1012.0 |
| 20260507005015 | 58 | 0 | 0.0 | 0.0 | 0.00 | 0.42 | 0.00 | 97 | 1012.0 |
| 20260507004515 | 58 | 0 | 0.0 | 0.0 | 0.00 | 0.42 | 0.00 | 96 | 1011.9 |
| 20260507004019 | 58 | 0 | 0.0 | 0.0 | 0.00 | 0.42 | 0.00 | 96 | 1012.0 |
| 20260507003515 | 58 | 0 | 0.0 | 0.0 | 0.00 | 0.42 | 0.00 | 96 | 1011.8 |
| 20260507003016 | 58 | 0 | 0.0 | 0.0 | 0.00 | 0.42 | 0.00 | 96 | 1012.0 |
| 20260507002518 | 58 | 0 | 0.0 | 0.0 | 0.00 | 0.42 | 0.00 | 96 | 1012.2 |
| 20260507002015 | 58 | 0 | 0.0 | 0.0 | 0.00 | 0.42 | 0.00 | 96 | 1012.0 |
| 20260507001519 | 59 | 0 | 0.0 | 0.0 | 0.00 | 0.42 | 0.00 | 96 | 1012.0 |
| 20260507001018 | 59 | 0 | 0.0 | 0.0 | 0.00 | 0.42 | 0.00 | 96 | 1011.9 |
| 20260507000516 | 59 | 0 | 0.0 | 0.0 | 0.00 | 0.42 | 0.00 | 96 | 1012.2 |
| 20260507000016 | 59 | 0 | 0.0 | 0.0 | 0.00 | 0.42 | 0.00 | 96 | 1012.2 |
| 20260506235517 | 59 | 0 | 0.0 | 0.0 | 0.00 | 0.42 | 0.00 | 96 | 1012.0 |
| 20260506234518 | 59 | 0 | 0.0 | 0.0 | 0.00 | 0.42 | 0.00 | 96 | 1012.3 |
| 20260506234015 | 59 | 0 | 0.0 | 0.0 | 0.00 | 0.42 | 0.00 | 96 | 1012.2 |
| 20260506233515 | 59 | 68 | 0.0 | 1.7 | 0.00 | 0.42 | 0.00 | 96 | 1012.1 |
| 20260506233019 | 59 | 75 | 0.0 | 1.7 | 0.00 | 0.42 | 0.00 | 96 | 1012.3 |
| 20260506232515 | 59 | 75 | 0.0 | 1.7 | 0.00 | 0.42 | 0.00 | 96 | 1012.2 |
| 20260506232016 | 59 | 0 | 0.0 | 0.0 | 0.00 | 0.42 | 0.00 | 96 | 1012.2 |
| 20260506231518 | 59 | 0 | 0.0 | 0.0 | 0.00 | 0.42 | 0.00 | 96 | 1012.2 |
| 20260506231015 | 59 | 0 | 0.0 | 0.0 | 0.00 | 0.42 | 0.00 | 96 | 1012.2 |
| 20260506230514 | 58 | 90 | 0.0 | 1.7 | 0.00 | 0.42 | 0.00 | 96 | 1012.3 |
| 20260506225516 | 58 | 0 | 0.0 | 0.0 | 0.00 | 0.42 | 0.00 | 95 | 1012.3 |
| 20260506224518 | 58 | 0 | 0.0 | 0.0 | 0.00 | 0.42 | 0.00 | 95 | 1012.3 |
| 20260506224015 | 58 | 0 | 0.0 | 0.0 | 0.00 | 0.42 | 0.00 | 95 | 1012.5 |
| 20260506223515 | 58 | 0 | 0.0 | 0.0 | 0.00 | 0.42 | 0.00 | 95 | 1012.5 |
| 20260506223018 | 58 | 0 | 0.0 | 0.0 | 0.00 | 0.42 | 0.00 | 95 | 1012.2 |
| 20260506222515 | 58 | 90 | 0.0 | 1.7 | 0.00 | 0.42 | 0.00 | 95 | 1012.3 |
| 20260506222016 | 58 | 86 | 0.0 | 1.7 | 0.00 | 0.42 | 0.00 | 95 | 1012.2 |
| 20260506221517 | 58 | 78 | 0.0 | 1.7 | 0.00 | 0.42 | 0.00 | 95 | 1012.3 |
| 20260506221015 | 58 | 68 | 0.0 | 1.7 | 0.00 | 0.42 | 0.00 | 95 | 1012.2 |
| 20260506220515 | 58 | 0 | 0.0 | 0.0 | 0.00 | 0.42 | 0.00 | 96 | 1012.2 |
| 20260506220028 | 58 | 0 | 0.0 | 0.0 | 0.00 | 0.42 | 0.00 | 96 | 1012.3 |
| 20260506215514 | 58 | 0 | 0.0 | 0.0 | 0.00 | 0.42 | 0.42 | 96 | 1012.3 |
| 20260506215015 | 58 | 0 | 0.0 | 0.0 | 0.00 | 0.42 | 0.42 | 96 | 1012.4 |
| 20260506214516 | 58 | 0 | 0.0 | 0.0 | 0.00 | 0.42 | 0.42 | 96 | 1012.2 |
| 20260506214016 | 58 | 0 | 0.0 | 0.0 | 0.00 | 0.42 | 0.42 | 96 | 1012.5 |
| 20260506213518 | 58 | 0 | 0.0 | 0.0 | 0.00 | 0.42 | 0.42 | 96 | 1012.3 |
| 20260506213018 | 58 | 0 | 0.0 | 0.0 | 0.00 | 0.42 | 0.42 | 96 | 1012.2 |
| 20260506212518 | 58 | 0 | 0.0 | 0.0 | 0.00 | 0.42 | 0.42 | 96 | 1012.2 |
| 20260506212016 | 58 | 0 | 0.0 | 0.0 | 0.00 | 0.43 | 0.42 | 96 | 1012.4 |
| 20260506211516 | 58 | 0 | 0.0 | 0.0 | 0.00 | 0.43 | 0.42 | 96 | 1012.5 |
| 20260506211016 | 58 | 0 | 0.0 | 0.0 | 0.00 | 0.43 | 0.42 | 96 | 1012.4 |
| 20260506210515 | 58 | 0 | 0.0 | 0.0 | 0.00 | 0.44 | 0.42 | 96 | 1012.4 |
| 20260506205516 | 58 | 0 | 0.0 | 0.0 | 0.00 | 0.44 | 0.42 | 96 | 1012.4 |
| 20260506205016 | 58 | 248 | 0.0 | 1.7 | 0.00 | 0.44 | 0.42 | 96 | 1012.6 |
| 20260506204515 | 58 | 232 | 0.0 | 1.7 | 0.00 | 0.44 | 0.42 | 96 | 1012.5 |
| 20260506204015 | 58 | 236 | 0.0 | 2.6 | 0.00 | 0.44 | 0.42 | 96 | 1012.6 |
| 20260506203515 | 58 | 238 | 0.0 | 2.6 | 0.00 | 0.44 | 0.42 | 96 | 1012.4 |
| 20260506203016 | 58 | 225 | 0.0 | 1.7 | 0.00 | 0.44 | 0.42 | 96 | 1012.3 |
| 20260506202514 | 59 | 0 | 0.0 | 0.0 | 0.00 | 0.44 | 0.42 | 96 | 1012.3 |
| 20260506202015 | 59 | 0 | 0.0 | 0.0 | 0.00 | 0.46 | 0.42 | 97 | 1012.2 |
| 20260506201515 | 59 | 0 | 0.0 | 0.0 | 0.00 | 0.46 | 0.42 | 97 | 1012.1 |
| 20260506201016 | 59 | 0 | 0.0 | 0.0 | 0.00 | 0.47 | 0.42 | 96 | 1012.6 |
| 20260506200515 | 59 | 0 | 0.0 | 0.0 | 0.00 | 0.47 | 0.42 | 96 | 1012.1 |
| 20260506200016 | 59 | 248 | 0.0 | 1.7 | 0.00 | 0.47 | 0.42 | 96 | 1012.4 |
| 20260506195515 | 59 | 249 | 0.0 | 1.7 | 0.00 | 0.48 | 0.42 | 96 | 1012.2 |
| 20260506194514 | 59 | 181 | 0.0 | 1.7 | 0.00 | 0.49 | 0.42 | 96 | 1012.0 |
| 20260506194015 | 59 | 0 | 0.0 | 0.0 | 0.00 | 0.49 | 0.42 | 96 | 1012.0 |
| 20260506193515 | 59 | 229 | 0.0 | 1.7 | 0.00 | 0.49 | 0.42 | 96 | 1011.9 |
| 20260506193016 | 60 | 246 | 0.0 | 1.7 | 0.00 | 0.49 | 0.42 | 96 | 1011.8 |
| 20260506192016 | 60 | 232 | 0.9 | 7.0 | 0.00 | 0.49 | 0.42 | 96 | 1011.6 |
| 20260506191515 | 60 | 233 | 1.7 | 7.0 | 0.00 | 0.49 | 0.42 | 96 | 1011.6 |
| 20260506191016 | 60 | 237 | 1.7 | 5.2 | 0.00 | 0.49 | 0.42 | 96 | 1011.5 |
| 20260506190515 | 60 | 244 | 1.7 | 5.2 | 0.00 | 0.49 | 0.42 | 96 | 1011.3 |
| 20260506190016 | 60 | 244 | 0.9 | 5.2 | 0.00 | 0.50 | 0.42 | 96 | 1011.3 |
| 20260506185518 | 60 | 258 | 0.9 | 2.6 | 0.00 | 0.51 | 0.42 | 96 | 1011.3 |
| 20260506185016 | 60 | 277 | 0.9 | 4.3 | 0.00 | 0.51 | 0.42 | 96 | 1011.2 |
| 20260506184515 | 60 | 250 | 0.9 | 4.3 | 0.00 | 0.51 | 0.42 | 96 | 1011.3 |
| 20260506184017 | 60 | 245 | 0.9 | 4.3 | 0.00 | 0.51 | 0.42 | 96 | 1011.4 |
| 20260506182517 | 60 | 213 | 0.9 | 4.3 | 0.00 | 0.51 | 0.42 | 96 | 1011.2 |
| 20260506182015 | 60 | 227 | 0.9 | 4.3 | 0.00 | 0.51 | 0.42 | 96 | 1011.4 |
| 20260506181515 | 60 | 293 | 0.0 | 2.6 | 0.00 | 0.51 | 0.42 | 96 | 1011.3 |
| 20260506181018 | 60 | 259 | 0.9 | 4.3 | 0.00 | 0.51 | 0.42 | 96 | 1011.4 |
| 20260506180516 | 60 | 248 | 0.9 | 5.2 | 0.00 | 0.51 | 0.42 | 96 | 1011.3 |
| 20260506180019 | 60 | 235 | 0.9 | 5.2 | 0.00 | 0.51 | 0.42 | 96 | 1011.0 |
| 20260506175516 | 60 | 224 | 0.9 | 5.2 | 0.00 | 0.51 | 0.42 | 96 | 1011.1 |
| 20260506174515 | 60 | 244 | 0.9 | 5.2 | 0.00 | 0.51 | 0.42 | 96 | 1011.3 |
| 20260506174016 | 60 | 244 | 0.9 | 5.2 | 0.00 | 0.51 | 0.42 | 96 | 1011.2 |
| 20260506173515 | 60 | 253 | 0.9 | 5.2 | 0.00 | 0.51 | 0.42 | 96 | 1011.3 |
| 20260506173015 | 60 | 253 | 0.9 | 5.2 | 0.00 | 0.51 | 0.42 | 96 | 1011.2 |
| 20260506172515 | 60 | 246 | 0.9 | 4.3 | 0.00 | 0.51 | 0.42 | 96 | 1010.8 |
| 20260506172015 | 60 | 245 | 0.9 | 4.3 | 0.00 | 0.51 | 0.42 | 96 | 1010.9 |
| 20260506171515 | 60 | 251 | 0.9 | 7.0 | 0.00 | 0.51 | 0.42 | 96 | 1011.1 |
| 20260506170515 | 60 | 237 | 1.7 | 5.2 | 0.00 | 0.51 | 0.42 | 96 | 1010.7 |
| 20260506170019 | 60 | 241 | 1.7 | 7.0 | 0.00 | 0.51 | 0.42 | 96 | 1010.9 |
| 20260506165515 | 60 | 246 | 1.7 | 7.0 | 0.00 | 0.52 | 0.42 | 96 | 1010.8 |
| 20260506165015 | 60 | 246 | 1.7 | 8.7 | 0.01 | 0.52 | 0.42 | 96 | 1010.9 |
| 20260506164515 | 60 | 245 | 1.7 | 8.7 | 0.01 | 0.52 | 0.42 | 96 | 1010.8 |
| 20260506164015 | 60 | 244 | 0.9 | 7.8 | 0.03 | 0.52 | 0.42 | 96 | 1010.7 |
| 20260506163515 | 60 | 245 | 0.9 | 5.2 | 0.03 | 0.52 | 0.42 | 96 | 1010.8 |
| 20260506163015 | 60 | 238 | 0.9 | 5.2 | 0.03 | 0.52 | 0.42 | 95 | 1010.7 |
| 20260506162515 | 60 | 241 | 0.9 | 5.2 | 0.04 | 0.52 | 0.42 | 95 | 1010.9 |
| 20260506162015 | 60 | 252 | 1.7 | 7.0 | 0.06 | 0.52 | 0.42 | 95 | 1010.9 |
| 20260506161515 | 60 | 245 | 1.7 | 7.0 | 0.07 | 0.52 | 0.42 | 95 | 1011.1 |
| 20260506161015 | 60 | 230 | 1.7 | 7.0 | 0.07 | 0.52 | 0.42 | 95 | 1010.9 |
| 20260506160016 | 59 | 250 | 2.6 | 7.8 | 0.07 | 0.52 | 0.42 | 95 | 1010.9 |
| 20260506155515 | 60 | 244 | 2.6 | 7.8 | 0.07 | 0.52 | 0.42 | 95 | 1010.8 |
| 20260506155019 | 60 | 225 | 2.6 | 9.6 | 0.06 | 0.51 | 0.41 | 95 | 1011.0 |
| 20260506154519 | 60 | 213 | 1.7 | 9.6 | 0.06 | 0.51 | 0.41 | 95 | 1010.8 |
| 20260506154015 | 61 | 254 | 0.9 | 4.3 | 0.03 | 0.49 | 0.39 | 95 | 1010.6 |
| 20260506153515 | 61 | 248 | 1.7 | 5.2 | 0.03 | 0.49 | 0.39 | 94 | 1011.0 |
| 20260506153015 | 61 | 264 | 0.9 | 5.2 | 0.03 | 0.49 | 0.39 | 94 | 1010.9 |
| 20260506152016 | 61 | 254 | 0.9 | 5.2 | 0.01 | 0.48 | 0.37 | 93 | 1011.1 |
| 20260506151016 | 61 | 246 | 0.0 | 5.2 | 0.00 | 0.48 | 0.36 | 93 | 1010.8 |
| 20260506150015 | 61 | 319 | 0.0 | 2.6 | 0.00 | 0.48 | 0.36 | 93 | 1011.0 |
| 20260506145515 | 62 | 301 | 0.0 | 2.6 | 0.00 | 0.48 | 0.36 | 93 | 1011.0 |
| 20260506145015 | 62 | 48 | 0.0 | 1.7 | 0.00 | 0.48 | 0.36 | 93 | 1011.0 |
| 20260506144516 | 62 | 127 | 0.0 | 2.6 | 0.00 | 0.48 | 0.36 | 93 | 1010.9 |
| 20260506144021 | 62 | 257 | 0.9 | 4.3 | 0.00 | 0.49 | 0.36 | 93 | 1011.0 |
| 20260506143514 | 62 | 271 | 0.9 | 4.3 | 0.00 | 0.49 | 0.36 | 93 | 1011.2 |
| 20260506143019 | 62 | 284 | 0.0 | 2.6 | 0.00 | 0.49 | 0.36 | 93 | 1011.4 |
| 20260506142515 | 62 | 293 | 0.9 | 4.3 | 0.00 | 0.50 | 0.36 | 93 | 1011.3 |
| 20260506142015 | 61 | 283 | 0.9 | 5.2 | 0.01 | 0.51 | 0.36 | 93 | 1011.1 |
| 20260506141515 | 61 | 263 | 0.9 | 5.2 | 0.01 | 0.51 | 0.36 | 92 | 1011.4 |
| 20260506140015 | 61 | 246 | 0.0 | 4.3 | 0.01 | 0.52 | 0.36 | 93 | 1011.5 |
| 20260506135516 | 61 | 260 | 0.0 | 2.6 | 0.01 | 0.52 | 0.36 | 93 | 1011.5 |
| 20260506135017 | 61 | 252 | 0.9 | 7.0 | 0.01 | 0.53 | 0.36 | 93 | 1011.6 |
| 20260506134516 | 61 | 252 | 1.7 | 7.0 | 0.01 | 0.54 | 0.36 | 92 | 1011.6 |
| 20260506134017 | 61 | 264 | 0.9 | 7.0 | 0.01 | 0.56 | 0.36 | 92 | 1011.6 |
| 20260506133515 | 61 | 247 | 0.9 | 7.8 | 0.01 | 0.58 | 0.36 | 93 | 1011.5 |
| 20260506133015 | 61 | 245 | 1.7 | 7.8 | 0.01 | 0.58 | 0.36 | 93 | 1011.8 |
| 20260506132519 | 61 | 242 | 1.7 | 7.0 | 0.01 | 0.59 | 0.36 | 93 | 1011.6 |
| 20260506132016 | 61 | 247 | 2.6 | 7.0 | 0.00 | 0.59 | 0.34 | 93 | 1011.7 |
| 20260506131515 | 61 | 250 | 2.6 | 7.8 | 0.00 | 0.61 | 0.34 | 93 | 1011.8 |
| 20260506131015 | 61 | 254 | 2.6 | 7.8 | 0.00 | 0.62 | 0.34 | 92 | 1012.0 |